sensor_id;sensor_type;location;lat;lon;timestamp;P1;P2;P0
38288;PMS5003;24092;53.370;-6.588;2022-08-01T00:01:04;1;1;
38288;PMS5003;24092;53.370;-6.588;2022-08-01T00:03:32;3;3;
38288;PMS5003;24092;53.370;-6.588;2022-08-01T00:05:59;3;2;
38288;PMS5003;24092;53.370;-6.588;2022-08-01T00:08:26;3;2;
38288;PMS5003;24092;53.370;-6.588;2022-08-01T00:10:53;4;4;
38288;PMS5003;24092;53.370;-6.588;2022-08-01T00:13:20;6;5;
38288;PMS5003;24092;53.370;-6.588;2022-08-01T00:15:46;4;4;
38288;PMS5003;24092;53.370;-6.588;2022-08-01T00:18:13;3;3;
38288;PMS5003;24092;53.370;-6.588;2022-08-01T00:20:40;4;4;
38288;PMS5003;24092;53.370;-6.588;2022-08-01T00:23:07;4;3;
38288;PMS5003;24092;53.370;-6.588;2022-08-01T00:25:34;3;3;
38288;PMS5003;24092;53.370;-6.588;2022-08-01T00:28:01;3;3;
38288;PMS5003;24092;53.370;-6.588;2022-08-01T00:30:29;4;3;
38288;PMS5003;24092;53.370;-6.588;2022-08-01T00:32:55;3;3;
38288;PMS5003;24092;53.370;-6.588;2022-08-01T00:35:22;4;3;
38288;PMS5003;24092;53.370;-6.588;2022-08-01T00:37:49;4;4;
38288;PMS5003;24092;53.370;-6.588;2022-08-01T00:40:16;5;5;
38288;PMS5003;24092;53.370;-6.588;2022-08-01T00:42:43;4;3;
38288;PMS5003;24092;53.370;-6.588;2022-08-01T00:45:10;3;3;
38288;PMS5003;24092;53.370;-6.588;2022-08-01T00:47:38;3;3;
38288;PMS5003;24092;53.370;-6.588;2022-08-01T00:50:06;3;3;
38288;PMS5003;24092;53.370;-6.588;2022-08-01T00:52:34;3;3;
38288;PMS5003;24092;53.370;-6.588;2022-08-01T00:55:02;3;3;
38288;PMS5003;24092;53.370;-6.588;2022-08-01T00:57:30;2;2;
38288;PMS5003;24092;53.370;-6.588;2022-08-01T00:59:57;2;2;
38288;PMS5003;24092;53.370;-6.588;2022-08-01T01:02:25;3;3;
38288;PMS5003;24092;53.370;-6.588;2022-08-01T01:04:52;3;3;
38288;PMS5003;24092;53.370;-6.588;2022-08-01T01:07:21;5;4;
38288;PMS5003;24092;53.370;-6.588;2022-08-01T01:09:56;4;4;
38288;PMS5003;24092;53.370;-6.588;2022-08-01T01:12:30;3;3;
38288;PMS5003;24092;53.370;-6.588;2022-08-01T01:15:02;3;3;
38288;PMS5003;24092;53.370;-6.588;2022-08-01T01:17:35;3;3;
38288;PMS5003;24092;53.370;-6.588;2022-08-01T01:20:07;6;5;
38288;PMS5003;24092;53.370;-6.588;2022-08-01T01:22:43;4;4;
38288;PMS5003;24092;53.370;-6.588;2022-08-01T01:25:22;6;4;
38288;PMS5003;24092;53.370;-6.588;2022-08-01T01:28:02;5;4;
38288;PMS5003;24092;53.370;-6.588;2022-08-01T01:30:34;3;3;
38288;PMS5003;24092;53.370;-6.588;2022-08-01T01:33:03;3;3;
38288;PMS5003;24092;53.370;-6.588;2022-08-01T01:35:34;5;4;
38288;PMS5003;24092;53.370;-6.588;2022-08-01T01:38:05;4;4;
38288;PMS5003;24092;53.370;-6.588;2022-08-01T01:40:36;3;3;
38288;PMS5003;24092;53.370;-6.588;2022-08-01T01:43:06;4;4;
38288;PMS5003;24092;53.370;-6.588;2022-08-01T01:45:36;3;3;
38288;PMS5003;24092;53.370;-6.588;2022-08-01T01:48:05;4;4;
38288;PMS5003;24092;53.370;-6.588;2022-08-01T01:50:34;4;4;
38288;PMS5003;24092;53.370;-6.588;2022-08-01T01:53:04;3;3;
38288;PMS5003;24092;53.370;-6.588;2022-08-01T01:55:33;3;3;
38288;PMS5003;24092;53.370;-6.588;2022-08-01T01:58:03;5;5;
38288;PMS5003;24092;53.370;-6.588;2022-08-01T02:00:34;8;8;
38288;PMS5003;24092;53.370;-6.588;2022-08-01T02:03:03;5;4;
38288;PMS5003;24092;53.370;-6.588;2022-08-01T02:05:32;5;5;
38288;PMS5003;24092;53.370;-6.588;2022-08-01T02:08:02;4;4;
38288;PMS5003;24092;53.370;-6.588;2022-08-01T02:10:31;3;3;
38288;PMS5003;24092;53.370;-6.588;2022-08-01T02:13:01;4;4;
38288;PMS5003;24092;53.370;-6.588;2022-08-01T02:15:30;4;4;
38288;PMS5003;24092;53.370;-6.588;2022-08-01T02:17:59;4;4;
38288;PMS5003;24092;53.370;-6.588;2022-08-01T02:20:29;4;4;
38288;PMS5003;24092;53.370;-6.588;2022-08-01T02:22:59;5;4;
38288;PMS5003;24092;53.370;-6.588;2022-08-01T02:25:31;4;3;
38288;PMS5003;24092;53.370;-6.588;2022-08-01T02:28:03;4;4;
38288;PMS5003;24092;53.370;-6.588;2022-08-01T02:30:34;4;3;
38288;PMS5003;24092;53.370;-6.588;2022-08-01T02:33:05;5;4;
38288;PMS5003;24092;53.370;-6.588;2022-08-01T02:35:38;6;4;
38288;PMS5003;24092;53.370;-6.588;2022-08-01T02:38:09;5;5;
38288;PMS5003;24092;53.370;-6.588;2022-08-01T02:40:39;5;5;
38288;PMS5003;24092;53.370;-6.588;2022-08-01T02:43:12;4;4;
38288;PMS5003;24092;53.370;-6.588;2022-08-01T02:45:42;4;3;
38288;PMS5003;24092;53.370;-6.588;2022-08-01T02:48:14;4;4;
38288;PMS5003;24092;53.370;-6.588;2022-08-01T02:50:44;5;4;
38288;PMS5003;24092;53.370;-6.588;2022-08-01T02:53:14;3;3;
38288;PMS5003;24092;53.370;-6.588;2022-08-01T02:55:42;5;4;
38288;PMS5003;24092;53.370;-6.588;2022-08-01T02:58:11;3;3;
38288;PMS5003;24092;53.370;-6.588;2022-08-01T03:00:41;4;3;
38288;PMS5003;24092;53.370;-6.588;2022-08-01T03:03:09;5;4;
38288;PMS5003;24092;53.370;-6.588;2022-08-01T03:05:39;4;4;
38288;PMS5003;24092;53.370;-6.588;2022-08-01T03:08:08;5;4;
38288;PMS5003;24092;53.370;-6.588;2022-08-01T03:10:38;4;4;
38288;PMS5003;24092;53.370;-6.588;2022-08-01T03:13:08;4;4;
38288;PMS5003;24092;53.370;-6.588;2022-08-01T03:15:37;5;3;
38288;PMS5003;24092;53.370;-6.588;2022-08-01T03:18:07;4;4;
38288;PMS5003;24092;53.370;-6.588;2022-08-01T03:20:38;4;4;
38288;PMS5003;24092;53.370;-6.588;2022-08-01T03:23:07;5;4;
38288;PMS5003;24092;53.370;-6.588;2022-08-01T03:25:38;7;4;
38288;PMS5003;24092;53.370;-6.588;2022-08-01T03:28:08;5;4;
38288;PMS5003;24092;53.370;-6.588;2022-08-01T03:30:38;4;4;
38288;PMS5003;24092;53.370;-6.588;2022-08-01T03:33:07;3;3;
38288;PMS5003;24092;53.370;-6.588;2022-08-01T03:35:36;5;3;
38288;PMS5003;24092;53.370;-6.588;2022-08-01T03:38:08;5;5;
38288;PMS5003;24092;53.370;-6.588;2022-08-01T03:40:38;5;5;
38288;PMS5003;24092;53.370;-6.588;2022-08-01T03:43:10;4;4;
38288;PMS5003;24092;53.370;-6.588;2022-08-01T03:45:45;5;5;
38288;PMS5003;24092;53.370;-6.588;2022-08-01T03:48:16;5;5;
38288;PMS5003;24092;53.370;-6.588;2022-08-01T03:50:46;7;7;
38288;PMS5003;24092;53.370;-6.588;2022-08-01T03:53:16;5;5;
38288;PMS5003;24092;53.370;-6.588;2022-08-01T03:55:49;6;6;
38288;PMS5003;24092;53.370;-6.588;2022-08-01T03:58:17;4;4;
38288;PMS5003;24092;53.370;-6.588;2022-08-01T04:00:45;5;5;
38288;PMS5003;24092;53.370;-6.588;2022-08-01T04:03:13;5;5;
38288;PMS5003;24092;53.370;-6.588;2022-08-01T04:05:41;8;7;
38288;PMS5003;24092;53.370;-6.588;2022-08-01T04:08:08;5;5;
38288;PMS5003;24092;53.370;-6.588;2022-08-01T04:10:34;6;6;
38288;PMS5003;24092;53.370;-6.588;2022-08-01T04:13:02;5;5;
38288;PMS5003;24092;53.370;-6.588;2022-08-01T04:15:29;5;5;
38288;PMS5003;24092;53.370;-6.588;2022-08-01T04:17:56;7;5;
38288;PMS5003;24092;53.370;-6.588;2022-08-01T04:20:23;6;6;
38288;PMS5003;24092;53.370;-6.588;2022-08-01T04:22:50;6;6;
38288;PMS5003;24092;53.370;-6.588;2022-08-01T04:25:19;6;6;
38288;PMS5003;24092;53.370;-6.588;2022-08-01T04:27:50;9;7;
38288;PMS5003;24092;53.370;-6.588;2022-08-01T04:30:19;7;7;
38288;PMS5003;24092;53.370;-6.588;2022-08-01T04:32:50;10;10;
38288;PMS5003;24092;53.370;-6.588;2022-08-01T04:35:21;10;9;
38288;PMS5003;24092;53.370;-6.588;2022-08-01T04:37:49;7;6;
38288;PMS5003;24092;53.370;-6.588;2022-08-01T04:40:18;8;8;
38288;PMS5003;24092;53.370;-6.588;2022-08-01T04:42:47;8;8;
38288;PMS5003;24092;53.370;-6.588;2022-08-01T04:45:15;9;9;
38288;PMS5003;24092;53.370;-6.588;2022-08-01T04:47:43;16;14;
38288;PMS5003;24092;53.370;-6.588;2022-08-01T04:50:11;12;11;
38288;PMS5003;24092;53.370;-6.588;2022-08-01T04:52:39;11;8;
38288;PMS5003;24092;53.370;-6.588;2022-08-01T04:55:07;9;9;
38288;PMS5003;24092;53.370;-6.588;2022-08-01T04:57:36;12;11;
38288;PMS5003;24092;53.370;-6.588;2022-08-01T05:00:07;12;11;
38288;PMS5003;24092;53.370;-6.588;2022-08-01T05:02:35;10;9;
38288;PMS5003;24092;53.370;-6.588;2022-08-01T05:05:03;11;11;
38288;PMS5003;24092;53.370;-6.588;2022-08-01T05:07:31;11;11;
38288;PMS5003;24092;53.370;-6.588;2022-08-01T05:09:58;12;12;
38288;PMS5003;24092;53.370;-6.588;2022-08-01T05:12:25;12;12;
38288;PMS5003;24092;53.370;-6.588;2022-08-01T05:14:53;15;14;
38288;PMS5003;24092;53.370;-6.588;2022-08-01T05:17:20;12;10;
38288;PMS5003;24092;53.370;-6.588;2022-08-01T05:19:47;13;13;
38288;PMS5003;24092;53.370;-6.588;2022-08-01T05:22:14;12;10;
38288;PMS5003;24092;53.370;-6.588;2022-08-01T05:24:41;11;11;
38288;PMS5003;24092;53.370;-6.588;2022-08-01T05:27:08;10;10;
38288;PMS5003;24092;53.370;-6.588;2022-08-01T05:29:36;12;12;
38288;PMS5003;24092;53.370;-6.588;2022-08-01T05:32:03;11;11;
38288;PMS5003;24092;53.370;-6.588;2022-08-01T05:34:31;11;10;
38288;PMS5003;24092;53.370;-6.588;2022-08-01T05:36:59;10;10;
38288;PMS5003;24092;53.370;-6.588;2022-08-01T05:39:26;11;10;
38288;PMS5003;24092;53.370;-6.588;2022-08-01T05:41:53;13;12;
38288;PMS5003;24092;53.370;-6.588;2022-08-01T05:44:20;13;13;
38288;PMS5003;24092;53.370;-6.588;2022-08-01T05:46:47;12;12;
38288;PMS5003;24092;53.370;-6.588;2022-08-01T05:49:13;12;11;
38288;PMS5003;24092;53.370;-6.588;2022-08-01T05:51:40;13;12;
38288;PMS5003;24092;53.370;-6.588;2022-08-01T05:54:07;13;13;
38288;PMS5003;24092;53.370;-6.588;2022-08-01T05:56:34;13;13;
38288;PMS5003;24092;53.370;-6.588;2022-08-01T05:59:02;12;12;
38288;PMS5003;24092;53.370;-6.588;2022-08-01T06:01:29;15;13;
38288;PMS5003;24092;53.370;-6.588;2022-08-01T06:03:56;12;12;
38288;PMS5003;24092;53.370;-6.588;2022-08-01T06:06:23;12;12;
38288;PMS5003;24092;53.370;-6.588;2022-08-01T06:08:50;12;12;
38288;PMS5003;24092;53.370;-6.588;2022-08-01T06:11:18;11;11;
38288;PMS5003;24092;53.370;-6.588;2022-08-01T06:13:44;11;11;
38288;PMS5003;24092;53.370;-6.588;2022-08-01T06:16:11;12;11;
38288;PMS5003;24092;53.370;-6.588;2022-08-01T06:18:38;10;9;
38288;PMS5003;24092;53.370;-6.588;2022-08-01T06:21:05;13;11;
38288;PMS5003;24092;53.370;-6.588;2022-08-01T06:23:32;14;13;
38288;PMS5003;24092;53.370;-6.588;2022-08-01T06:26:00;11;10;
38288;PMS5003;24092;53.370;-6.588;2022-08-01T06:28:27;13;11;
38288;PMS5003;24092;53.370;-6.588;2022-08-01T06:30:55;12;11;
38288;PMS5003;24092;53.370;-6.588;2022-08-01T06:33:22;11;10;
38288;PMS5003;24092;53.370;-6.588;2022-08-01T06:35:49;10;10;
38288;PMS5003;24092;53.370;-6.588;2022-08-01T06:38:17;10;10;
38288;PMS5003;24092;53.370;-6.588;2022-08-01T06:40:45;13;12;
38288;PMS5003;24092;53.370;-6.588;2022-08-01T06:43:12;8;8;
38288;PMS5003;24092;53.370;-6.588;2022-08-01T06:45:40;13;11;
38288;PMS5003;24092;53.370;-6.588;2022-08-01T06:48:07;11;11;
38288;PMS5003;24092;53.370;-6.588;2022-08-01T06:50:34;10;10;
38288;PMS5003;24092;53.370;-6.588;2022-08-01T06:53:01;8;8;
38288;PMS5003;24092;53.370;-6.588;2022-08-01T06:55:28;12;11;
38288;PMS5003;24092;53.370;-6.588;2022-08-01T06:57:55;10;10;
38288;PMS5003;24092;53.370;-6.588;2022-08-01T07:00:23;14;13;
38288;PMS5003;24092;53.370;-6.588;2022-08-01T07:02:51;9;9;
38288;PMS5003;24092;53.370;-6.588;2022-08-01T07:05:21;8;8;
38288;PMS5003;24092;53.370;-6.588;2022-08-01T07:07:48;7;7;
38288;PMS5003;24092;53.370;-6.588;2022-08-01T07:10:16;9;8;
38288;PMS5003;24092;53.370;-6.588;2022-08-01T07:12:43;10;10;
38288;PMS5003;24092;53.370;-6.588;2022-08-01T07:15:10;7;7;
38288;PMS5003;24092;53.370;-6.588;2022-08-01T07:17:38;8;7;
38288;PMS5003;24092;53.370;-6.588;2022-08-01T07:20:07;8;8;
38288;PMS5003;24092;53.370;-6.588;2022-08-01T07:22:35;9;8;
38288;PMS5003;24092;53.370;-6.588;2022-08-01T07:25:03;7;7;
38288;PMS5003;24092;53.370;-6.588;2022-08-01T07:27:31;9;9;
38288;PMS5003;24092;53.370;-6.588;2022-08-01T07:29:58;7;7;
38288;PMS5003;24092;53.370;-6.588;2022-08-01T07:32:25;8;8;
38288;PMS5003;24092;53.370;-6.588;2022-08-01T07:34:53;6;5;
38288;PMS5003;24092;53.370;-6.588;2022-08-01T07:37:20;10;8;
38288;PMS5003;24092;53.370;-6.588;2022-08-01T07:39:47;6;6;
38288;PMS5003;24092;53.370;-6.588;2022-08-01T07:42:15;9;9;
38288;PMS5003;24092;53.370;-6.588;2022-08-01T07:44:42;7;6;
38288;PMS5003;24092;53.370;-6.588;2022-08-01T07:47:08;7;7;
38288;PMS5003;24092;53.370;-6.588;2022-08-01T07:49:35;10;9;
38288;PMS5003;24092;53.370;-6.588;2022-08-01T07:52:03;7;7;
38288;PMS5003;24092;53.370;-6.588;2022-08-01T07:54:30;6;6;
38288;PMS5003;24092;53.370;-6.588;2022-08-01T07:56:58;9;8;
38288;PMS5003;24092;53.370;-6.588;2022-08-01T07:59:25;8;7;
38288;PMS5003;24092;53.370;-6.588;2022-08-01T08:01:51;10;9;
38288;PMS5003;24092;53.370;-6.588;2022-08-01T08:04:18;7;7;
38288;PMS5003;24092;53.370;-6.588;2022-08-01T08:06:45;7;7;
38288;PMS5003;24092;53.370;-6.588;2022-08-01T08:09:12;9;9;
38288;PMS5003;24092;53.370;-6.588;2022-08-01T08:11:41;8;7;
38288;PMS5003;24092;53.370;-6.588;2022-08-01T08:14:09;6;5;
38288;PMS5003;24092;53.370;-6.588;2022-08-01T08:16:36;6;6;
38288;PMS5003;24092;53.370;-6.588;2022-08-01T08:19:04;7;7;
38288;PMS5003;24092;53.370;-6.588;2022-08-01T08:21:32;6;6;
38288;PMS5003;24092;53.370;-6.588;2022-08-01T08:23:59;7;7;
38288;PMS5003;24092;53.370;-6.588;2022-08-01T08:26:27;6;6;
38288;PMS5003;24092;53.370;-6.588;2022-08-01T08:28:54;9;9;
38288;PMS5003;24092;53.370;-6.588;2022-08-01T08:31:21;7;6;
38288;PMS5003;24092;53.370;-6.588;2022-08-01T08:33:49;5;5;
38288;PMS5003;24092;53.370;-6.588;2022-08-01T08:36:16;6;6;
38288;PMS5003;24092;53.370;-6.588;2022-08-01T08:38:43;6;6;
38288;PMS5003;24092;53.370;-6.588;2022-08-01T08:41:11;4;4;
38288;PMS5003;24092;53.370;-6.588;2022-08-01T08:43:39;4;4;
38288;PMS5003;24092;53.370;-6.588;2022-08-01T08:46:07;5;5;
38288;PMS5003;24092;53.370;-6.588;2022-08-01T08:48:36;2;2;
38288;PMS5003;24092;53.370;-6.588;2022-08-01T08:51:05;4;4;
38288;PMS5003;24092;53.370;-6.588;2022-08-01T08:53:34;4;4;
38288;PMS5003;24092;53.370;-6.588;2022-08-01T08:56:02;4;4;
38288;PMS5003;24092;53.370;-6.588;2022-08-01T08:58:32;5;5;
38288;PMS5003;24092;53.370;-6.588;2022-08-01T09:01:01;4;4;
38288;PMS5003;24092;53.370;-6.588;2022-08-01T09:03:28;4;4;
38288;PMS5003;24092;53.370;-6.588;2022-08-01T09:05:56;5;4;
38288;PMS5003;24092;53.370;-6.588;2022-08-01T09:08:23;5;3;
38288;PMS5003;24092;53.370;-6.588;2022-08-01T09:10:51;3;3;
38288;PMS5003;24092;53.370;-6.588;2022-08-01T09:13:19;3;3;
38288;PMS5003;24092;53.370;-6.588;2022-08-01T09:15:47;3;2;
38288;PMS5003;24092;53.370;-6.588;2022-08-01T09:18:25;1;1;
38288;PMS5003;24092;53.370;-6.588;2022-08-01T09:21:28;4;4;
38288;PMS5003;24092;53.370;-6.588;2022-08-01T09:23:55;3;3;
38288;PMS5003;24092;53.370;-6.588;2022-08-01T09:26:28;2;2;
38288;PMS5003;24092;53.370;-6.588;2022-08-01T09:28:57;3;2;
38288;PMS5003;24092;53.370;-6.588;2022-08-01T09:31:26;2;2;
38288;PMS5003;24092;53.370;-6.588;2022-08-01T09:33:55;3;3;
38288;PMS5003;24092;53.370;-6.588;2022-08-01T09:36:23;2;2;
38288;PMS5003;24092;53.370;-6.588;2022-08-01T09:38:53;1;1;
38288;PMS5003;24092;53.370;-6.588;2022-08-01T09:41:28;1;1;
38288;PMS5003;24092;53.370;-6.588;2022-08-01T09:43:57;2;2;
38288;PMS5003;24092;53.370;-6.588;2022-08-01T09:46:24;5;5;
38288;PMS5003;24092;53.370;-6.588;2022-08-01T09:48:56;5;5;
38288;PMS5003;24092;53.370;-6.588;2022-08-01T09:51:29;4;4;
38288;PMS5003;24092;53.370;-6.588;2022-08-01T09:53:57;2;2;
38288;PMS5003;24092;53.370;-6.588;2022-08-01T09:56:25;4;4;
38288;PMS5003;24092;53.370;-6.588;2022-08-01T09:58:53;3;3;
38288;PMS5003;24092;53.370;-6.588;2022-08-01T10:01:23;4;4;
38288;PMS5003;24092;53.370;-6.588;2022-08-01T10:04:07;4;4;
38288;PMS5003;24092;53.370;-6.588;2022-08-01T10:06:36;2;2;
38288;PMS5003;24092;53.370;-6.588;2022-08-01T10:09:03;2;2;
38288;PMS5003;24092;53.370;-6.588;2022-08-01T10:11:31;2;2;
38288;PMS5003;24092;53.370;-6.588;2022-08-01T10:13:59;0;0;
38288;PMS5003;24092;53.370;-6.588;2022-08-01T10:16:29;2;2;
38288;PMS5003;24092;53.370;-6.588;2022-08-01T10:18:58;1;1;
38288;PMS5003;24092;53.370;-6.588;2022-08-01T10:21:27;2;2;
38288;PMS5003;24092;53.370;-6.588;2022-08-01T10:23:56;2;2;
38288;PMS5003;24092;53.370;-6.588;2022-08-01T10:26:25;2;2;
38288;PMS5003;24092;53.370;-6.588;2022-08-01T10:28:53;0;0;
38288;PMS5003;24092;53.370;-6.588;2022-08-01T10:31:21;1;1;
38288;PMS5003;24092;53.370;-6.588;2022-08-01T10:33:50;4;2;
38288;PMS5003;24092;53.370;-6.588;2022-08-01T10:36:17;2;2;
38288;PMS5003;24092;53.370;-6.588;2022-08-01T10:38:46;2;2;
38288;PMS5003;24092;53.370;-6.588;2022-08-01T10:41:14;2;2;
38288;PMS5003;24092;53.370;-6.588;2022-08-01T10:43:42;2;2;
38288;PMS5003;24092;53.370;-6.588;2022-08-01T10:46:09;2;2;
38288;PMS5003;24092;53.370;-6.588;2022-08-01T10:48:39;2;2;
38288;PMS5003;24092;53.370;-6.588;2022-08-01T10:51:13;4;3;
38288;PMS5003;24092;53.370;-6.588;2022-08-01T10:53:45;1;1;
38288;PMS5003;24092;53.370;-6.588;2022-08-01T10:56:13;2;2;
38288;PMS5003;24092;53.370;-6.588;2022-08-01T10:58:41;2;1;
38288;PMS5003;24092;53.370;-6.588;2022-08-01T11:01:14;0;0;
38288;PMS5003;24092;53.370;-6.588;2022-08-01T11:03:55;1;1;
38288;PMS5003;24092;53.370;-6.588;2022-08-01T11:06:25;2;2;
38288;PMS5003;24092;53.370;-6.588;2022-08-01T11:09:03;1;1;
38288;PMS5003;24092;53.370;-6.588;2022-08-01T11:11:31;2;2;
38288;PMS5003;24092;53.370;-6.588;2022-08-01T11:14:02;1;1;
38288;PMS5003;24092;53.370;-6.588;2022-08-01T11:16:32;2;2;
38288;PMS5003;24092;53.370;-6.588;2022-08-01T11:19:01;1;1;
38288;PMS5003;24092;53.370;-6.588;2022-08-01T11:22:02;2;2;
38288;PMS5003;24092;53.370;-6.588;2022-08-01T11:25:01;1;1;
38288;PMS5003;24092;53.370;-6.588;2022-08-01T11:27:29;1;1;
38288;PMS5003;24092;53.370;-6.588;2022-08-01T11:30:29;2;2;
38288;PMS5003;24092;53.370;-6.588;2022-08-01T11:32:56;4;3;
38288;PMS5003;24092;53.370;-6.588;2022-08-01T11:35:24;1;1;
38288;PMS5003;24092;53.370;-6.588;2022-08-01T11:37:51;1;1;
38288;PMS5003;24092;53.370;-6.588;2022-08-01T11:40:21;3;3;
38288;PMS5003;24092;53.370;-6.588;2022-08-01T11:42:49;1;1;
38288;PMS5003;24092;53.370;-6.588;2022-08-01T11:45:49;1;1;
38288;PMS5003;24092;53.370;-6.588;2022-08-01T11:48:18;2;1;
38288;PMS5003;24092;53.370;-6.588;2022-08-01T11:50:47;1;1;
38288;PMS5003;24092;53.370;-6.588;2022-08-01T11:53:17;4;3;
38288;PMS5003;24092;53.370;-6.588;2022-08-01T11:55:46;1;1;
38288;PMS5003;24092;53.370;-6.588;2022-08-01T11:58:13;2;2;
38288;PMS5003;24092;53.370;-6.588;2022-08-01T12:00:49;2;2;
38288;PMS5003;24092;53.370;-6.588;2022-08-01T12:03:20;2;2;
38288;PMS5003;24092;53.370;-6.588;2022-08-01T12:05:51;3;2;
38288;PMS5003;24092;53.370;-6.588;2022-08-01T12:08:24;2;2;
38288;PMS5003;24092;53.370;-6.588;2022-08-01T12:10:51;3;3;
38288;PMS5003;24092;53.370;-6.588;2022-08-01T12:13:18;2;1;
38288;PMS5003;24092;53.370;-6.588;2022-08-01T12:15:46;1;1;
38288;PMS5003;24092;53.370;-6.588;2022-08-01T12:18:14;1;1;
38288;PMS5003;24092;53.370;-6.588;2022-08-01T12:20:43;1;1;
38288;PMS5003;24092;53.370;-6.588;2022-08-01T12:26:38;3;3;
38288;PMS5003;24092;53.370;-6.588;2022-08-01T12:29:06;3;3;
38288;PMS5003;24092;53.370;-6.588;2022-08-01T12:31:33;1;1;
38288;PMS5003;24092;53.370;-6.588;2022-08-01T12:34:33;1;1;
38288;PMS5003;24092;53.370;-6.588;2022-08-01T12:37:01;2;2;
38288;PMS5003;24092;53.370;-6.588;2022-08-01T12:39:30;3;3;
38288;PMS5003;24092;53.370;-6.588;2022-08-01T12:41:59;2;2;
38288;PMS5003;24092;53.370;-6.588;2022-08-01T12:44:26;3;3;
38288;PMS5003;24092;53.370;-6.588;2022-08-01T12:46:55;3;2;
38288;PMS5003;24092;53.370;-6.588;2022-08-01T12:49:23;2;2;
38288;PMS5003;24092;53.370;-6.588;2022-08-01T12:51:51;2;2;
38288;PMS5003;24092;53.370;-6.588;2022-08-01T12:54:18;1;1;
38288;PMS5003;24092;53.370;-6.588;2022-08-01T12:56:45;2;2;
38288;PMS5003;24092;53.370;-6.588;2022-08-01T12:59:20;2;2;
38288;PMS5003;24092;53.370;-6.588;2022-08-01T13:01:49;3;3;
38288;PMS5003;24092;53.370;-6.588;2022-08-01T13:04:15;2;2;
38288;PMS5003;24092;53.370;-6.588;2022-08-01T13:06:43;2;2;
38288;PMS5003;24092;53.370;-6.588;2022-08-01T13:09:11;1;1;
38288;PMS5003;24092;53.370;-6.588;2022-08-01T13:11:38;3;2;
38288;PMS5003;24092;53.370;-6.588;2022-08-01T13:14:06;1;1;
38288;PMS5003;24092;53.370;-6.588;2022-08-01T13:16:34;2;2;
38288;PMS5003;24092;53.370;-6.588;2022-08-01T13:19:13;2;2;
38288;PMS5003;24092;53.370;-6.588;2022-08-01T13:21:52;2;2;
38288;PMS5003;24092;53.370;-6.588;2022-08-01T13:24:24;2;2;
38288;PMS5003;24092;53.370;-6.588;2022-08-01T13:26:54;1;1;
38288;PMS5003;24092;53.370;-6.588;2022-08-01T13:29:28;2;2;
38288;PMS5003;24092;53.370;-6.588;2022-08-01T13:31:56;2;2;
38288;PMS5003;24092;53.370;-6.588;2022-08-01T13:34:29;2;2;
38288;PMS5003;24092;53.370;-6.588;2022-08-01T13:36:57;2;2;
38288;PMS5003;24092;53.370;-6.588;2022-08-01T13:39:26;2;2;
38288;PMS5003;24092;53.370;-6.588;2022-08-01T13:41:53;1;1;
38288;PMS5003;24092;53.370;-6.588;2022-08-01T13:44:20;1;1;
38288;PMS5003;24092;53.370;-6.588;2022-08-01T13:46:47;1;1;
38288;PMS5003;24092;53.370;-6.588;2022-08-01T13:49:14;3;2;
38288;PMS5003;24092;53.370;-6.588;2022-08-01T13:51:41;2;1;
38288;PMS5003;24092;53.370;-6.588;2022-08-01T13:54:09;1;1;
38288;PMS5003;24092;53.370;-6.588;2022-08-01T13:56:35;2;1;
38288;PMS5003;24092;53.370;-6.588;2022-08-01T13:59:03;0;0;
38288;PMS5003;24092;53.370;-6.588;2022-08-01T14:01:30;0;0;
38288;PMS5003;24092;53.370;-6.588;2022-08-01T14:03:56;1;1;
38288;PMS5003;24092;53.370;-6.588;2022-08-01T14:06:23;1;1;
38288;PMS5003;24092;53.370;-6.588;2022-08-01T14:08:51;1;1;
38288;PMS5003;24092;53.370;-6.588;2022-08-01T14:11:18;0;0;
38288;PMS5003;24092;53.370;-6.588;2022-08-01T14:13:45;0;0;
38288;PMS5003;24092;53.370;-6.588;2022-08-01T14:16:12;0;0;
38288;PMS5003;24092;53.370;-6.588;2022-08-01T14:18:39;0;0;
38288;PMS5003;24092;53.370;-6.588;2022-08-01T14:21:07;1;1;
38288;PMS5003;24092;53.370;-6.588;2022-08-01T14:23:35;0;0;
38288;PMS5003;24092;53.370;-6.588;2022-08-01T14:26:01;0;0;
38288;PMS5003;24092;53.370;-6.588;2022-08-01T14:28:29;0;0;
38288;PMS5003;24092;53.370;-6.588;2022-08-01T14:30:57;0;0;
38288;PMS5003;24092;53.370;-6.588;2022-08-01T14:33:24;1;1;
38288;PMS5003;24092;53.370;-6.588;2022-08-01T14:35:52;0;0;
38288;PMS5003;24092;53.370;-6.588;2022-08-01T14:38:19;0;0;
38288;PMS5003;24092;53.370;-6.588;2022-08-01T14:40:46;0;0;
38288;PMS5003;24092;53.370;-6.588;2022-08-01T14:43:13;0;0;
38288;PMS5003;24092;53.370;-6.588;2022-08-01T14:45:40;0;0;
38288;PMS5003;24092;53.370;-6.588;2022-08-01T14:48:06;0;0;
38288;PMS5003;24092;53.370;-6.588;2022-08-01T14:50:33;0;0;
38288;PMS5003;24092;53.370;-6.588;2022-08-01T14:53:01;0;0;
38288;PMS5003;24092;53.370;-6.588;2022-08-01T14:55:28;1;1;
38288;PMS5003;24092;53.370;-6.588;2022-08-01T14:57:55;1;0;
38288;PMS5003;24092;53.370;-6.588;2022-08-01T15:00:22;0;0;
38288;PMS5003;24092;53.370;-6.588;2022-08-01T15:02:50;0;0;
38288;PMS5003;24092;53.370;-6.588;2022-08-01T15:05:18;0;0;
38288;PMS5003;24092;53.370;-6.588;2022-08-01T15:07:45;0;0;
38288;PMS5003;24092;53.370;-6.588;2022-08-01T15:10:12;0;0;
38288;PMS5003;24092;53.370;-6.588;2022-08-01T15:12:39;0;0;
38288;PMS5003;24092;53.370;-6.588;2022-08-01T15:15:07;0;0;
38288;PMS5003;24092;53.370;-6.588;2022-08-01T15:17:34;1;0;
38288;PMS5003;24092;53.370;-6.588;2022-08-01T15:20:03;0;0;
38288;PMS5003;24092;53.370;-6.588;2022-08-01T15:22:33;0;0;
38288;PMS5003;24092;53.370;-6.588;2022-08-01T15:25:00;0;0;
38288;PMS5003;24092;53.370;-6.588;2022-08-01T15:27:28;0;0;
38288;PMS5003;24092;53.370;-6.588;2022-08-01T15:29:56;0;0;
38288;PMS5003;24092;53.370;-6.588;2022-08-01T15:32:23;0;0;
38288;PMS5003;24092;53.370;-6.588;2022-08-01T15:34:49;1;1;
38288;PMS5003;24092;53.370;-6.588;2022-08-01T15:37:17;1;1;
38288;PMS5003;24092;53.370;-6.588;2022-08-01T15:39:45;0;0;
38288;PMS5003;24092;53.370;-6.588;2022-08-01T15:42:13;0;0;
38288;PMS5003;24092;53.370;-6.588;2022-08-01T15:44:42;0;0;
38288;PMS5003;24092;53.370;-6.588;2022-08-01T15:47:09;0;0;
38288;PMS5003;24092;53.370;-6.588;2022-08-01T15:49:37;0;0;
38288;PMS5003;24092;53.370;-6.588;2022-08-01T15:52:05;0;0;
38288;PMS5003;24092;53.370;-6.588;2022-08-01T15:54:33;0;0;
38288;PMS5003;24092;53.370;-6.588;2022-08-01T15:57:00;2;1;
38288;PMS5003;24092;53.370;-6.588;2022-08-01T15:59:28;0;0;
38288;PMS5003;24092;53.370;-6.588;2022-08-01T16:01:55;0;0;
38288;PMS5003;24092;53.370;-6.588;2022-08-01T16:04:22;0;0;
38288;PMS5003;24092;53.370;-6.588;2022-08-01T16:06:50;0;0;
38288;PMS5003;24092;53.370;-6.588;2022-08-01T16:09:16;0;0;
38288;PMS5003;24092;53.370;-6.588;2022-08-01T16:11:43;0;0;
38288;PMS5003;24092;53.370;-6.588;2022-08-01T16:14:11;0;0;
38288;PMS5003;24092;53.370;-6.588;2022-08-01T16:16:38;0;0;
38288;PMS5003;24092;53.370;-6.588;2022-08-01T16:19:06;1;0;
38288;PMS5003;24092;53.370;-6.588;2022-08-01T16:21:33;0;0;
38288;PMS5003;24092;53.370;-6.588;2022-08-01T16:24:01;0;0;
38288;PMS5003;24092;53.370;-6.588;2022-08-01T16:26:28;0;0;
38288;PMS5003;24092;53.370;-6.588;2022-08-01T16:28:56;0;0;
38288;PMS5003;24092;53.370;-6.588;2022-08-01T16:31:24;0;0;
38288;PMS5003;24092;53.370;-6.588;2022-08-01T16:33:51;0;0;
38288;PMS5003;24092;53.370;-6.588;2022-08-01T16:36:19;0;0;
38288;PMS5003;24092;53.370;-6.588;2022-08-01T16:38:46;0;0;
38288;PMS5003;24092;53.370;-6.588;2022-08-01T16:41:14;0;0;
38288;PMS5003;24092;53.370;-6.588;2022-08-01T16:43:41;1;0;